Prattsville, New York
Current Conditions -  °F | °C
As of 8:51 PM on Monday 20 Oct 2014 (Local Time) from KALB Reporting Station
Overcast Overcast  
Wind Chill: 50°   Ceiling: 11000
Heat Index: 50°   Visibility: 10mi
Dew Point: 38°   Wind: 3mph
Humidity: 63%   Direction: 200°SSW
Pressure: 29.94"   Gusts: NA
Location:  42.31°N, 74.43°W
Report Text: KALB 210051Z 20003KT 10SM FEW085 OVC110 10/03 A2994 RMK AO2 SLP138 T01000033
Loading
Personal Weather Stations






























Interactive Weather Map
Tropical Storm Tracking
New forecast layout! Learn more

10-Day Weather Forecast

Advertisements
Track Severe Weather on mobile